Adrian, Washington
Current Conditions -  °F | °C
As of 4:53 AM on Saturday 20 Dec 2014 (Local Time) from KEPH Reporting Station
Light Rain Light Rain  
Wind Chill: 31°   Ceiling: 2900
Heat Index: 37°   Visibility: 6mi
Dew Point: 35°   Wind: 8mph
Humidity: 93%   Direction: 360°N
Pressure: 29.86"   Gusts: NA
Location:  47.4314°N, 119.485°W
Report Text: KEPH 201253Z AUTO 36007KT 6SM -RA BR OVC029 03/02 A2986 RMK AO2 RAB1158 SLP122 P0001 T00280017
Loading
Personal Weather Stations






























Interactive Weather Map New forecast layout! Learn more

10-Day Weather Forecast

Advertisements
Track Severe Weather on mobile